sensor_id;sensor_type;location;lat;lon;timestamp;P1;durP1;ratioP1;P2;durP2;ratioP2
52542;SDS011;38449;52.696;6.186;2023-04-09T00:01:59;59.72;;;31.58;;
52542;SDS011;38449;52.696;6.186;2023-04-09T00:04:26;54.65;;;30.27;;
52542;SDS011;38449;52.696;6.186;2023-04-09T00:06:52;52.58;;;29.60;;
52542;SDS011;38449;52.696;6.186;2023-04-09T00:09:18;50.72;;;30.08;;
52542;SDS011;38449;52.696;6.186;2023-04-09T00:11:45;56.25;;;30.33;;
52542;SDS011;38449;52.696;6.186;2023-04-09T00:14:15;50.83;;;29.33;;
52542;SDS011;38449;52.696;6.186;2023-04-09T00:16:41;52.25;;;29.95;;
52542;SDS011;38449;52.696;6.186;2023-04-09T00:19:07;54.40;;;29.23;;
52542;SDS011;38449;52.696;6.186;2023-04-09T00:21:33;48.83;;;28.63;;
52542;SDS011;38449;52.696;6.186;2023-04-09T00:24:00;53.72;;;31.83;;
52542;SDS011;38449;52.696;6.186;2023-04-09T00:26:26;52.72;;;29.15;;
52542;SDS011;38449;52.696;6.186;2023-04-09T00:28:52;49.75;;;29.50;;
52542;SDS011;38449;52.696;6.186;2023-04-09T00:31:19;49.80;;;29.75;;
52542;SDS011;38449;52.696;6.186;2023-04-09T00:33:46;49.40;;;27.42;;
52542;SDS011;38449;52.696;6.186;2023-04-09T00:36:12;50.78;;;28.38;;
52542;SDS011;38449;52.696;6.186;2023-04-09T00:38:38;51.70;;;29.52;;
52542;SDS011;38449;52.696;6.186;2023-04-09T00:41:05;49.00;;;28.15;;
52542;SDS011;38449;52.696;6.186;2023-04-09T00:43:31;48.15;;;30.05;;
52542;SDS011;38449;52.696;6.186;2023-04-09T00:45:58;50.65;;;30.13;;
52542;SDS011;38449;52.696;6.186;2023-04-09T00:48:25;52.15;;;29.88;;
52542;SDS011;38449;52.696;6.186;2023-04-09T00:50:52;48.72;;;28.63;;
52542;SDS011;38449;52.696;6.186;2023-04-09T00:53:19;53.05;;;31.02;;
52542;SDS011;38449;52.696;6.186;2023-04-09T00:55:45;48.10;;;28.73;;
52542;SDS011;38449;52.696;6.186;2023-04-09T00:58:12;45.13;;;26.30;;
52542;SDS011;38449;52.696;6.186;2023-04-09T01:00:38;46.33;;;27.25;;
52542;SDS011;38449;52.696;6.186;2023-04-09T01:03:08;43.33;;;25.67;;
52542;SDS011;38449;52.696;6.186;2023-04-09T01:06:21;42.72;;;24.55;;
52542;SDS011;38449;52.696;6.186;2023-04-09T01:11:36;41.10;;;24.33;;
52542;SDS011;38449;52.696;6.186;2023-04-09T01:14:23;40.75;;;25.40;;
52542;SDS011;38449;52.696;6.186;2023-04-09T01:16:59;44.70;;;25.83;;
52542;SDS011;38449;52.696;6.186;2023-04-09T01:19:38;39.55;;;24.00;;
52542;SDS011;38449;52.696;6.186;2023-04-09T01:22:56;37.35;;;23.52;;
52542;SDS011;38449;52.696;6.186;2023-04-09T01:28:17;40.92;;;23.65;;
52542;SDS011;38449;52.696;6.186;2023-04-09T01:30:44;36.80;;;22.23;;
52542;SDS011;38449;52.696;6.186;2023-04-09T01:33:14;38.47;;;22.88;;
52542;SDS011;38449;52.696;6.186;2023-04-09T01:35:42;38.03;;;23.65;;
52542;SDS011;38449;52.696;6.186;2023-04-09T01:38:11;40.08;;;25.00;;
52542;SDS011;38449;52.696;6.186;2023-04-09T01:40:42;39.28;;;23.05;;
52542;SDS011;38449;52.696;6.186;2023-04-09T01:43:09;40.17;;;23.05;;
52542;SDS011;38449;52.696;6.186;2023-04-09T01:45:36;41.22;;;23.42;;
52542;SDS011;38449;52.696;6.186;2023-04-09T01:48:03;39.28;;;22.50;;
52542;SDS011;38449;52.696;6.186;2023-04-09T01:50:31;39.47;;;23.23;;
52542;SDS011;38449;52.696;6.186;2023-04-09T01:52:58;37.85;;;24.20;;
52542;SDS011;38449;52.696;6.186;2023-04-09T01:55:26;41.78;;;24.27;;
52542;SDS011;38449;52.696;6.186;2023-04-09T01:57:58;43.80;;;24.25;;
52542;SDS011;38449;52.696;6.186;2023-04-09T02:00:35;40.97;;;23.13;;
52542;SDS011;38449;52.696;6.186;2023-04-09T02:03:27;38.80;;;22.63;;
52542;SDS011;38449;52.696;6.186;2023-04-09T02:08:39;40.22;;;22.45;;
52542;SDS011;38449;52.696;6.186;2023-04-09T02:11:11;43.53;;;24.25;;
52542;SDS011;38449;52.696;6.186;2023-04-09T02:13:39;42.47;;;23.25;;
52542;SDS011;38449;52.696;6.186;2023-04-09T02:16:08;43.95;;;24.75;;
52542;SDS011;38449;52.696;6.186;2023-04-09T02:18:38;49.40;;;26.17;;
52542;SDS011;38449;52.696;6.186;2023-04-09T02:21:04;45.92;;;26.98;;
52542;SDS011;38449;52.696;6.186;2023-04-09T02:23:31;44.00;;;25.30;;
52542;SDS011;38449;52.696;6.186;2023-04-09T02:25:58;43.78;;;24.67;;
52542;SDS011;38449;52.696;6.186;2023-04-09T02:28:24;45.90;;;29.05;;
52542;SDS011;38449;52.696;6.186;2023-04-09T02:30:50;46.08;;;26.92;;
52542;SDS011;38449;52.696;6.186;2023-04-09T02:33:17;46.88;;;26.58;;
52542;SDS011;38449;52.696;6.186;2023-04-09T02:35:44;42.28;;;25.08;;
52542;SDS011;38449;52.696;6.186;2023-04-09T02:38:10;47.97;;;26.45;;
52542;SDS011;38449;52.696;6.186;2023-04-09T02:40:40;42.75;;;25.48;;
52542;SDS011;38449;52.696;6.186;2023-04-09T02:43:07;41.92;;;24.20;;
52542;SDS011;38449;52.696;6.186;2023-04-09T02:45:34;40.90;;;23.90;;
52542;SDS011;38449;52.696;6.186;2023-04-09T02:48:01;39.70;;;22.58;;
52542;SDS011;38449;52.696;6.186;2023-04-09T02:50:27;37.95;;;21.00;;
52542;SDS011;38449;52.696;6.186;2023-04-09T02:52:56;39.67;;;22.67;;
52542;SDS011;38449;52.696;6.186;2023-04-09T02:55:23;41.40;;;24.48;;
52542;SDS011;38449;52.696;6.186;2023-04-09T02:57:50;38.17;;;22.75;;
52542;SDS011;38449;52.696;6.186;2023-04-09T03:00:18;39.13;;;22.67;;
52542;SDS011;38449;52.696;6.186;2023-04-09T03:02:45;37.72;;;23.65;;
52542;SDS011;38449;52.696;6.186;2023-04-09T03:05:11;36.30;;;21.25;;
52542;SDS011;38449;52.696;6.186;2023-04-09T03:07:38;39.72;;;21.98;;
52542;SDS011;38449;52.696;6.186;2023-04-09T03:10:04;39.03;;;21.95;;
52542;SDS011;38449;52.696;6.186;2023-04-09T03:12:37;37.20;;;20.30;;
52542;SDS011;38449;52.696;6.186;2023-04-09T03:15:04;39.47;;;22.88;;
52542;SDS011;38449;52.696;6.186;2023-04-09T03:17:38;38.05;;;22.50;;
52542;SDS011;38449;52.696;6.186;2023-04-09T03:20:07;36.55;;;20.85;;
52542;SDS011;38449;52.696;6.186;2023-04-09T03:22:35;40.40;;;22.58;;
52542;SDS011;38449;52.696;6.186;2023-04-09T03:25:02;37.63;;;21.70;;
52542;SDS011;38449;52.696;6.186;2023-04-09T03:27:28;38.85;;;23.70;;
52542;SDS011;38449;52.696;6.186;2023-04-09T03:30:01;39.38;;;21.20;;
52542;SDS011;38449;52.696;6.186;2023-04-09T03:32:29;38.65;;;21.05;;
52542;SDS011;38449;52.696;6.186;2023-04-09T03:34:55;35.13;;;20.63;;
52542;SDS011;38449;52.696;6.186;2023-04-09T03:37:22;35.47;;;20.88;;
52542;SDS011;38449;52.696;6.186;2023-04-09T03:39:48;36.17;;;21.05;;
52542;SDS011;38449;52.696;6.186;2023-04-09T03:42:14;39.72;;;23.65;;
52542;SDS011;38449;52.696;6.186;2023-04-09T03:44:41;37.53;;;20.35;;
52542;SDS011;38449;52.696;6.186;2023-04-09T03:47:08;36.70;;;21.27;;
52542;SDS011;38449;52.696;6.186;2023-04-09T03:49:34;38.65;;;22.40;;
52542;SDS011;38449;52.696;6.186;2023-04-09T03:52:01;37.47;;;21.83;;
52542;SDS011;38449;52.696;6.186;2023-04-09T03:54:30;38.60;;;22.08;;
52542;SDS011;38449;52.696;6.186;2023-04-09T03:56:57;38.78;;;22.52;;
52542;SDS011;38449;52.696;6.186;2023-04-09T03:59:28;35.78;;;21.27;;
52542;SDS011;38449;52.696;6.186;2023-04-09T04:01:54;38.10;;;22.48;;
52542;SDS011;38449;52.696;6.186;2023-04-09T04:04:20;37.33;;;21.52;;
52542;SDS011;38449;52.696;6.186;2023-04-09T04:06:47;39.90;;;22.55;;
52542;SDS011;38449;52.696;6.186;2023-04-09T04:09:13;35.85;;;21.70;;
52542;SDS011;38449;52.696;6.186;2023-04-09T04:11:41;37.97;;;21.88;;
52542;SDS011;38449;52.696;6.186;2023-04-09T04:14:08;40.88;;;21.40;;
52542;SDS011;38449;52.696;6.186;2023-04-09T04:16:34;42.38;;;23.45;;
52542;SDS011;38449;52.696;6.186;2023-04-09T04:19:00;36.85;;;21.50;;
52542;SDS011;38449;52.696;6.186;2023-04-09T04:21:30;38.75;;;22.17;;
52542;SDS011;38449;52.696;6.186;2023-04-09T04:23:57;42.33;;;22.50;;
52542;SDS011;38449;52.696;6.186;2023-04-09T04:26:24;37.63;;;21.52;;
52542;SDS011;38449;52.696;6.186;2023-04-09T04:28:50;38.25;;;22.27;;
52542;SDS011;38449;52.696;6.186;2023-04-09T04:31:16;41.28;;;24.17;;
52542;SDS011;38449;52.696;6.186;2023-04-09T04:33:43;42.70;;;23.10;;
52542;SDS011;38449;52.696;6.186;2023-04-09T04:36:10;40.00;;;22.23;;
52542;SDS011;38449;52.696;6.186;2023-04-09T04:38:38;43.78;;;25.13;;
52542;SDS011;38449;52.696;6.186;2023-04-09T04:41:06;42.05;;;24.95;;
52542;SDS011;38449;52.696;6.186;2023-04-09T04:43:32;41.42;;;23.02;;
52542;SDS011;38449;52.696;6.186;2023-04-09T04:46:00;41.63;;;23.58;;
52542;SDS011;38449;52.696;6.186;2023-04-09T04:48:32;39.25;;;22.90;;
52542;SDS011;38449;52.696;6.186;2023-04-09T04:50:59;37.78;;;23.83;;
52542;SDS011;38449;52.696;6.186;2023-04-09T04:53:29;40.75;;;23.45;;
52542;SDS011;38449;52.696;6.186;2023-04-09T04:55:56;40.22;;;23.02;;
52542;SDS011;38449;52.696;6.186;2023-04-09T04:58:26;41.67;;;23.98;;
52542;SDS011;38449;52.696;6.186;2023-04-09T05:00:53;42.35;;;24.98;;
52542;SDS011;38449;52.696;6.186;2023-04-09T05:03:19;43.33;;;24.23;;
52542;SDS011;38449;52.696;6.186;2023-04-09T05:05:45;40.60;;;24.50;;
52542;SDS011;38449;52.696;6.186;2023-04-09T05:08:12;41.08;;;23.38;;
52542;SDS011;38449;52.696;6.186;2023-04-09T05:10:44;42.92;;;24.58;;
52542;SDS011;38449;52.696;6.186;2023-04-09T05:13:11;41.00;;;22.73;;
52542;SDS011;38449;52.696;6.186;2023-04-09T05:15:38;38.83;;;23.13;;
52542;SDS011;38449;52.696;6.186;2023-04-09T05:18:11;35.88;;;21.58;;
52542;SDS011;38449;52.696;6.186;2023-04-09T05:20:37;35.70;;;21.55;;
52542;SDS011;38449;52.696;6.186;2023-04-09T05:23:09;34.38;;;21.27;;
52542;SDS011;38449;52.696;6.186;2023-04-09T05:25:43;38.60;;;22.30;;
52542;SDS011;38449;52.696;6.186;2023-04-09T05:28:17;35.28;;;20.40;;
52542;SDS011;38449;52.696;6.186;2023-04-09T05:30:46;37.42;;;22.50;;
52542;SDS011;38449;52.696;6.186;2023-04-09T05:33:12;36.60;;;21.02;;
52542;SDS011;38449;52.696;6.186;2023-04-09T05:35:39;37.40;;;21.33;;
52542;SDS011;38449;52.696;6.186;2023-04-09T05:38:05;35.60;;;20.50;;
52542;SDS011;38449;52.696;6.186;2023-04-09T05:40:32;38.30;;;21.02;;
52542;SDS011;38449;52.696;6.186;2023-04-09T05:42:58;37.30;;;22.20;;
52542;SDS011;38449;52.696;6.186;2023-04-09T05:45:25;35.25;;;21.27;;
52542;SDS011;38449;52.696;6.186;2023-04-09T05:47:53;36.72;;;21.52;;
52542;SDS011;38449;52.696;6.186;2023-04-09T05:50:19;38.05;;;22.80;;
52542;SDS011;38449;52.696;6.186;2023-04-09T05:52:48;36.80;;;21.45;;
52542;SDS011;38449;52.696;6.186;2023-04-09T05:55:14;34.85;;;21.00;;
52542;SDS011;38449;52.696;6.186;2023-04-09T05:57:40;36.20;;;20.73;;
52542;SDS011;38449;52.696;6.186;2023-04-09T06:00:07;35.25;;;20.65;;
52542;SDS011;38449;52.696;6.186;2023-04-09T06:02:33;32.60;;;20.90;;
52542;SDS011;38449;52.696;6.186;2023-04-09T06:05:01;32.90;;;21.20;;
52542;SDS011;38449;52.696;6.186;2023-04-09T06:07:27;32.10;;;20.67;;
52542;SDS011;38449;52.696;6.186;2023-04-09T06:09:55;32.65;;;22.05;;
52542;SDS011;38449;52.696;6.186;2023-04-09T06:12:21;32.58;;;20.08;;
52542;SDS011;38449;52.696;6.186;2023-04-09T06:14:47;31.58;;;19.75;;
52542;SDS011;38449;52.696;6.186;2023-04-09T06:17:15;32.25;;;19.88;;
52542;SDS011;38449;52.696;6.186;2023-04-09T06:19:41;33.80;;;19.20;;
52542;SDS011;38449;52.696;6.186;2023-04-09T06:22:10;28.45;;;18.27;;
52542;SDS011;38449;52.696;6.186;2023-04-09T06:24:36;33.95;;;21.95;;
52542;SDS011;38449;52.696;6.186;2023-04-09T06:27:03;32.20;;;20.55;;
52542;SDS011;38449;52.696;6.186;2023-04-09T06:29:30;32.40;;;19.90;;
52542;SDS011;38449;52.696;6.186;2023-04-09T06:31:56;30.48;;;18.67;;
52542;SDS011;38449;52.696;6.186;2023-04-09T06:34:26;29.63;;;18.73;;
52542;SDS011;38449;52.696;6.186;2023-04-09T06:36:52;32.08;;;19.50;;
52542;SDS011;38449;52.696;6.186;2023-04-09T06:39:18;34.97;;;21.05;;
52542;SDS011;38449;52.696;6.186;2023-04-09T06:41:46;33.83;;;19.45;;
52542;SDS011;38449;52.696;6.186;2023-04-09T06:44:12;32.67;;;21.10;;
52542;SDS011;38449;52.696;6.186;2023-04-09T06:46:39;30.63;;;19.38;;
52542;SDS011;38449;52.696;6.186;2023-04-09T06:49:09;31.40;;;21.08;;
52542;SDS011;38449;52.696;6.186;2023-04-09T06:51:35;31.05;;;18.50;;
52542;SDS011;38449;52.696;6.186;2023-04-09T06:54:01;29.85;;;19.88;;
52542;SDS011;38449;52.696;6.186;2023-04-09T06:56:28;29.15;;;18.30;;
52542;SDS011;38449;52.696;6.186;2023-04-09T06:58:54;29.48;;;18.75;;
52542;SDS011;38449;52.696;6.186;2023-04-09T07:01:20;30.40;;;20.27;;
52542;SDS011;38449;52.696;6.186;2023-04-09T07:03:47;32.97;;;20.35;;
52542;SDS011;38449;52.696;6.186;2023-04-09T07:06:14;29.83;;;18.10;;
52542;SDS011;38449;52.696;6.186;2023-04-09T07:08:40;30.73;;;20.00;;
52542;SDS011;38449;52.696;6.186;2023-04-09T07:11:06;29.50;;;19.23;;
52542;SDS011;38449;52.696;6.186;2023-04-09T07:13:33;30.33;;;20.73;;
52542;SDS011;38449;52.696;6.186;2023-04-09T07:15:59;31.08;;;20.20;;
52542;SDS011;38449;52.696;6.186;2023-04-09T07:18:33;29.23;;;20.20;;
52542;SDS011;38449;52.696;6.186;2023-04-09T07:21:00;30.92;;;19.50;;
52542;SDS011;38449;52.696;6.186;2023-04-09T07:23:33;29.05;;;19.25;;
52542;SDS011;38449;52.696;6.186;2023-04-09T07:26:02;31.60;;;20.85;;
52542;SDS011;38449;52.696;6.186;2023-04-09T07:28:29;32.03;;;19.60;;
52542;SDS011;38449;52.696;6.186;2023-04-09T07:30:55;29.92;;;19.02;;
52542;SDS011;38449;52.696;6.186;2023-04-09T07:33:21;33.67;;;19.20;;
52542;SDS011;38449;52.696;6.186;2023-04-09T07:35:47;33.25;;;19.67;;
52542;SDS011;38449;52.696;6.186;2023-04-09T07:38:14;30.67;;;18.17;;
52542;SDS011;38449;52.696;6.186;2023-04-09T07:40:46;27.98;;;18.38;;
52542;SDS011;38449;52.696;6.186;2023-04-09T07:43:20;31.60;;;19.33;;
52542;SDS011;38449;52.696;6.186;2023-04-09T07:45:49;28.85;;;18.20;;
52542;SDS011;38449;52.696;6.186;2023-04-09T07:48:20;29.60;;;19.50;;
52542;SDS011;38449;52.696;6.186;2023-04-09T07:50:46;28.10;;;17.05;;
52542;SDS011;38449;52.696;6.186;2023-04-09T07:53:13;27.05;;;17.77;;
52542;SDS011;38449;52.696;6.186;2023-04-09T07:55:40;32.03;;;19.67;;
52542;SDS011;38449;52.696;6.186;2023-04-09T07:58:06;28.73;;;18.10;;
52542;SDS011;38449;52.696;6.186;2023-04-09T08:00:32;29.85;;;18.55;;
52542;SDS011;38449;52.696;6.186;2023-04-09T08:02:59;27.90;;;18.80;;
52542;SDS011;38449;52.696;6.186;2023-04-09T08:05:28;30.15;;;19.05;;
52542;SDS011;38449;52.696;6.186;2023-04-09T08:07:55;27.65;;;19.13;;
52542;SDS011;38449;52.696;6.186;2023-04-09T08:10:21;28.23;;;18.23;;
52542;SDS011;38449;52.696;6.186;2023-04-09T08:12:49;29.48;;;19.88;;
52542;SDS011;38449;52.696;6.186;2023-04-09T08:15:15;30.13;;;18.90;;
52542;SDS011;38449;52.696;6.186;2023-04-09T08:17:41;31.20;;;19.60;;
52542;SDS011;38449;52.696;6.186;2023-04-09T08:20:14;30.02;;;20.42;;
52542;SDS011;38449;52.696;6.186;2023-04-09T08:22:41;28.65;;;19.33;;
52542;SDS011;38449;52.696;6.186;2023-04-09T08:25:10;28.13;;;17.90;;
52542;SDS011;38449;52.696;6.186;2023-04-09T08:27:37;26.95;;;18.23;;
52542;SDS011;38449;52.696;6.186;2023-04-09T08:30:04;28.17;;;18.77;;
52542;SDS011;38449;52.696;6.186;2023-04-09T08:32:31;30.40;;;19.95;;
52542;SDS011;38449;52.696;6.186;2023-04-09T08:34:57;26.73;;;18.50;;
52542;SDS011;38449;52.696;6.186;2023-04-09T08:37:23;27.75;;;18.92;;
52542;SDS011;38449;52.696;6.186;2023-04-09T08:39:50;28.30;;;18.10;;
52542;SDS011;38449;52.696;6.186;2023-04-09T08:42:16;28.45;;;18.88;;
52542;SDS011;38449;52.696;6.186;2023-04-09T08:44:45;25.75;;;17.40;;
52542;SDS011;38449;52.696;6.186;2023-04-09T08:47:11;29.25;;;18.45;;
52542;SDS011;38449;52.696;6.186;2023-04-09T08:49:38;26.63;;;18.00;;
52542;SDS011;38449;52.696;6.186;2023-04-09T08:52:06;27.35;;;20.08;;
52542;SDS011;38449;52.696;6.186;2023-04-09T08:54:32;26.20;;;18.77;;
52542;SDS011;38449;52.696;6.186;2023-04-09T08:56:59;27.70;;;19.95;;
52542;SDS011;38449;52.696;6.186;2023-04-09T08:59:28;25.98;;;17.48;;
52542;SDS011;38449;52.696;6.186;2023-04-09T09:02:10;26.80;;;18.98;;
52542;SDS011;38449;52.696;6.186;2023-04-09T09:04:47;28.02;;;18.55;;
52542;SDS011;38449;52.696;6.186;2023-04-09T09:07:15;29.77;;;19.98;;
52542;SDS011;38449;52.696;6.186;2023-04-09T09:09:52;29.33;;;18.83;;
52542;SDS011;38449;52.696;6.186;2023-04-09T09:12:30;26.42;;;19.02;;
52542;SDS011;38449;52.696;6.186;2023-04-09T09:15:27;30.30;;;19.33;;
52542;SDS011;38449;52.696;6.186;2023-04-09T09:17:57;29.90;;;18.60;;
52542;SDS011;38449;52.696;6.186;2023-04-09T09:20:25;27.60;;;18.90;;
52542;SDS011;38449;52.696;6.186;2023-04-09T09:22:52;27.75;;;18.15;;
52542;SDS011;38449;52.696;6.186;2023-04-09T09:25:20;29.10;;;19.92;;
52542;SDS011;38449;52.696;6.186;2023-04-09T09:27:50;29.92;;;19.83;;
52542;SDS011;38449;52.696;6.186;2023-04-09T09:30:21;31.80;;;20.63;;
52542;SDS011;38449;52.696;6.186;2023-04-09T09:33:03;29.75;;;20.55;;
52542;SDS011;38449;52.696;6.186;2023-04-09T09:35:30;29.23;;;20.65;;
52542;SDS011;38449;52.696;6.186;2023-04-09T09:38:10;30.27;;;21.08;;
52542;SDS011;38449;52.696;6.186;2023-04-09T09:40:37;28.15;;;19.40;;
52542;SDS011;38449;52.696;6.186;2023-04-09T09:43:03;28.83;;;20.15;;
52542;SDS011;38449;52.696;6.186;2023-04-09T09:45:29;30.45;;;20.83;;
52542;SDS011;38449;52.696;6.186;2023-04-09T09:48:01;27.30;;;18.95;;
52542;SDS011;38449;52.696;6.186;2023-04-09T09:50:28;27.40;;;19.55;;
52542;SDS011;38449;52.696;6.186;2023-04-09T09:53:01;28.35;;;18.95;;
52542;SDS011;38449;52.696;6.186;2023-04-09T09:55:30;28.30;;;19.60;;
52542;SDS011;38449;52.696;6.186;2023-04-09T09:57:59;28.02;;;18.70;;
52542;SDS011;38449;52.696;6.186;2023-04-09T10:00:29;29.35;;;20.58;;
52542;SDS011;38449;52.696;6.186;2023-04-09T10:03:13;27.20;;;19.20;;
52542;SDS011;38449;52.696;6.186;2023-04-09T10:05:44;27.02;;;17.02;;
52542;SDS011;38449;52.696;6.186;2023-04-09T10:08:11;25.77;;;17.15;;
52542;SDS011;38449;52.696;6.186;2023-04-09T10:10:38;26.23;;;18.05;;
52542;SDS011;38449;52.696;6.186;2023-04-09T10:13:08;22.67;;;15.77;;
52542;SDS011;38449;52.696;6.186;2023-04-09T10:15:40;25.00;;;17.15;;
52542;SDS011;38449;52.696;6.186;2023-04-09T10:18:09;24.23;;;17.15;;
52542;SDS011;38449;52.696;6.186;2023-04-09T10:20:39;24.83;;;17.13;;
52542;SDS011;38449;52.696;6.186;2023-04-09T10:23:13;25.90;;;17.10;;
52542;SDS011;38449;52.696;6.186;2023-04-09T10:25:44;24.92;;;15.57;;
52542;SDS011;38449;52.696;6.186;2023-04-09T10:28:15;21.90;;;14.77;;
52542;SDS011;38449;52.696;6.186;2023-04-09T10:30:43;21.95;;;14.85;;
52542;SDS011;38449;52.696;6.186;2023-04-09T10:33:10;22.15;;;14.90;;
52542;SDS011;38449;52.696;6.186;2023-04-09T10:35:38;22.45;;;15.10;;
52542;SDS011;38449;52.696;6.186;2023-04-09T10:38:07;22.38;;;15.30;;
52542;SDS011;38449;52.696;6.186;2023-04-09T10:43:42;23.20;;;15.68;;
52542;SDS011;38449;52.696;6.186;2023-04-09T10:46:33;22.83;;;16.10;;
52542;SDS011;38449;52.696;6.186;2023-04-09T10:49:07;22.80;;;15.90;;
52542;SDS011;38449;52.696;6.186;2023-04-09T10:51:35;23.73;;;16.35;;
52542;SDS011;38449;52.696;6.186;2023-04-09T10:54:04;23.20;;;17.30;;
52542;SDS011;38449;52.696;6.186;2023-04-09T10:56:31;23.58;;;16.75;;
52542;SDS011;38449;52.696;6.186;2023-04-09T10:58:58;23.35;;;16.33;;
52542;SDS011;38449;52.696;6.186;2023-04-09T11:01:24;24.13;;;17.00;;
52542;SDS011;38449;52.696;6.186;2023-04-09T11:04:08;22.65;;;16.02;;
52542;SDS011;38449;52.696;6.186;2023-04-09T11:06:41;23.00;;;16.65;;
52542;SDS011;38449;52.696;6.186;2023-04-09T11:09:10;22.83;;;16.35;;
52542;SDS011;38449;52.696;6.186;2023-04-09T11:11:37;21.02;;;15.88;;
52542;SDS011;38449;52.696;6.186;2023-04-09T11:14:03;26.35;;;18.08;;
52542;SDS011;38449;52.696;6.186;2023-04-09T11:16:30;23.67;;;15.88;;
52542;SDS011;38449;52.696;6.186;2023-04-09T11:18:56;22.42;;;15.10;;
52542;SDS011;38449;52.696;6.186;2023-04-09T11:21:26;23.02;;;17.05;;
52542;SDS011;38449;52.696;6.186;2023-04-09T11:23:56;23.20;;;16.52;;
52542;SDS011;38449;52.696;6.186;2023-04-09T11:26:23;24.50;;;18.00;;
52542;SDS011;38449;52.696;6.186;2023-04-09T11:28:54;22.85;;;16.40;;
52542;SDS011;38449;52.696;6.186;2023-04-09T11:31:25;24.90;;;15.90;;
52542;SDS011;38449;52.696;6.186;2023-04-09T11:33:53;22.08;;;16.35;;
52542;SDS011;38449;52.696;6.186;2023-04-09T11:36:27;20.80;;;15.07;;
52542;SDS011;38449;52.696;6.186;2023-04-09T11:38:54;20.85;;;15.95;;
52542;SDS011;38449;52.696;6.186;2023-04-09T11:41:34;22.20;;;16.55;;
52542;SDS011;38449;52.696;6.186;2023-04-09T11:44:02;19.77;;;15.30;;
52542;SDS011;38449;52.696;6.186;2023-04-09T11:46:31;21.45;;;16.35;;
52542;SDS011;38449;52.696;6.186;2023-04-09T11:48:57;20.42;;;15.82;;
52542;SDS011;38449;52.696;6.186;2023-04-09T11:51:25;21.52;;;15.30;;
52542;SDS011;38449;52.696;6.186;2023-04-09T11:53:52;20.60;;;17.00;;
52542;SDS011;38449;52.696;6.186;2023-04-09T11:56:19;20.40;;;15.98;;
52542;SDS011;38449;52.696;6.186;2023-04-09T11:58:46;19.48;;;14.48;;
52542;SDS011;38449;52.696;6.186;2023-04-09T12:01:13;19.70;;;14.63;;
52542;SDS011;38449;52.696;6.186;2023-04-09T12:03:41;21.13;;;14.88;;
52542;SDS011;38449;52.696;6.186;2023-04-09T12:06:07;20.25;;;14.85;;
52542;SDS011;38449;52.696;6.186;2023-04-09T12:08:36;19.73;;;13.98;;
52542;SDS011;38449;52.696;6.186;2023-04-09T12:11:10;18.55;;;13.80;;
52542;SDS011;38449;52.696;6.186;2023-04-09T12:13:38;17.45;;;13.55;;
52542;SDS011;38449;52.696;6.186;2023-04-09T12:16:10;17.90;;;13.65;;
52542;SDS011;38449;52.696;6.186;2023-04-09T12:18:38;19.98;;;14.40;;
52542;SDS011;38449;52.696;6.186;2023-04-09T12:21:05;19.52;;;14.18;;
52542;SDS011;38449;52.696;6.186;2023-04-09T12:23:31;18.88;;;13.52;;
52542;SDS011;38449;52.696;6.186;2023-04-09T12:25:58;18.80;;;14.75;;
52542;SDS011;38449;52.696;6.186;2023-04-09T12:28:27;20.20;;;13.65;;
52542;SDS011;38449;52.696;6.186;2023-04-09T12:30:54;19.50;;;14.85;;
52542;SDS011;38449;52.696;6.186;2023-04-09T12:33:20;18.50;;;13.75;;
52542;SDS011;38449;52.696;6.186;2023-04-09T12:35:47;19.23;;;13.80;;
52542;SDS011;38449;52.696;6.186;2023-04-09T12:38:13;19.70;;;14.48;;
52542;SDS011;38449;52.696;6.186;2023-04-09T12:40:39;23.10;;;14.00;;
52542;SDS011;38449;52.696;6.186;2023-04-09T12:43:06;20.80;;;15.02;;
52542;SDS011;38449;52.696;6.186;2023-04-09T12:45:32;21.38;;;15.25;;
52542;SDS011;38449;52.696;6.186;2023-04-09T12:47:58;17.45;;;13.38;;
52542;SDS011;38449;52.696;6.186;2023-04-09T12:50:24;20.02;;;14.13;;
52542;SDS011;38449;52.696;6.186;2023-04-09T12:52:51;18.27;;;13.40;;
52542;SDS011;38449;52.696;6.186;2023-04-09T12:55:17;18.75;;;13.88;;
52542;SDS011;38449;52.696;6.186;2023-04-09T12:57:44;20.15;;;14.20;;
52542;SDS011;38449;52.696;6.186;2023-04-09T13:00:11;17.63;;;13.45;;
52542;SDS011;38449;52.696;6.186;2023-04-09T13:02:38;21.98;;;14.57;;
52542;SDS011;38449;52.696;6.186;2023-04-09T13:05:07;19.65;;;14.27;;
52542;SDS011;38449;52.696;6.186;2023-04-09T13:07:33;18.63;;;13.55;;
52542;SDS011;38449;52.696;6.186;2023-04-09T13:10:00;19.17;;;13.75;;
52542;SDS011;38449;52.696;6.186;2023-04-09T13:12:26;16.48;;;12.63;;
52542;SDS011;38449;52.696;6.186;2023-04-09T13:14:53;18.95;;;13.40;;
52542;SDS011;38449;52.696;6.186;2023-04-09T13:17:19;17.80;;;12.55;;
52542;SDS011;38449;52.696;6.186;2023-04-09T13:19:46;17.48;;;12.98;;
52542;SDS011;38449;52.696;6.186;2023-04-09T13:22:12;18.23;;;13.20;;
52542;SDS011;38449;52.696;6.186;2023-04-09T13:24:39;17.40;;;12.85;;
52542;SDS011;38449;52.696;6.186;2023-04-09T13:27:05;16.73;;;12.45;;
52542;SDS011;38449;52.696;6.186;2023-04-09T13:29:34;16.98;;;12.18;;
52542;SDS011;38449;52.696;6.186;2023-04-09T13:32:00;17.35;;;12.70;;
52542;SDS011;38449;52.696;6.186;2023-04-09T13:34:32;16.63;;;11.80;;
52542;SDS011;38449;52.696;6.186;2023-04-09T13:37:00;17.88;;;13.63;;
52542;SDS011;38449;52.696;6.186;2023-04-09T13:39:27;18.63;;;13.32;;
52542;SDS011;38449;52.696;6.186;2023-04-09T13:41:53;16.00;;;12.38;;
52542;SDS011;38449;52.696;6.186;2023-04-09T13:44:21;14.60;;;11.45;;
52542;SDS011;38449;52.696;6.186;2023-04-09T13:46:48;16.00;;;13.05;;
52542;SDS011;38449;52.696;6.186;2023-04-09T13:49:14;14.90;;;10.88;;
52542;SDS011;38449;52.696;6.186;2023-04-09T13:51:41;16.13;;;11.68;;
52542;SDS011;38449;52.696;6.186;2023-04-09T13:54:07;15.57;;;11.65;;
52542;SDS011;38449;52.696;6.186;2023-04-09T13:56:36;15.63;;;10.48;;
52542;SDS011;38449;52.696;6.186;2023-04-09T13:59:03;14.75;;;10.32;;
52542;SDS011;38449;52.696;6.186;2023-04-09T14:01:29;17.90;;;11.18;;
52542;SDS011;38449;52.696;6.186;2023-04-09T14:03:55;14.82;;;11.10;;
52542;SDS011;38449;52.696;6.186;2023-04-09T14:06:22;15.38;;;10.43;;
52542;SDS011;38449;52.696;6.186;2023-04-09T14:08:48;13.68;;;10.70;;
52542;SDS011;38449;52.696;6.186;2023-04-09T14:11:14;14.52;;;10.55;;
52542;SDS011;38449;52.696;6.186;2023-04-09T14:13:41;13.38;;;9.60;;
52542;SDS011;38449;52.696;6.186;2023-04-09T14:16:07;13.65;;;9.75;;
52542;SDS011;38449;52.696;6.186;2023-04-09T14:18:34;14.27;;;9.73;;
52542;SDS011;38449;52.696;6.186;2023-04-09T14:21:00;13.23;;;9.38;;
52542;SDS011;38449;52.696;6.186;2023-04-09T14:23:26;12.18;;;9.38;;
52542;SDS011;38449;52.696;6.186;2023-04-09T14:25:53;11.93;;;8.70;;
52542;SDS011;38449;52.696;6.186;2023-04-09T14:28:19;11.00;;;8.27;;
52542;SDS011;38449;52.696;6.186;2023-04-09T14:30:45;10.25;;;8.13;;
52542;SDS011;38449;52.696;6.186;2023-04-09T14:33:11;11.50;;;8.20;;
52542;SDS011;38449;52.696;6.186;2023-04-09T14:35:38;10.20;;;7.28;;
52542;SDS011;38449;52.696;6.186;2023-04-09T14:38:04;9.98;;;7.80;;
52542;SDS011;38449;52.696;6.186;2023-04-09T14:40:30;9.35;;;7.28;;